createdAt,value
2024-04-23T00:29:29.797Z,18
2024-04-23T00:39:32.152Z,18
2024-04-23T00:59:36.935Z,17.9
2024-04-23T01:09:38.952Z,17.9
2024-04-23T01:19:41.190Z,17.9
2024-04-23T01:29:43.515Z,17.8
2024-04-23T01:39:45.695Z,17.8
2024-04-23T01:49:47.938Z,17.8
2024-04-23T01:59:49.910Z,17.7
2024-04-23T02:09:52.044Z,17.7
2024-04-23T02:19:54.138Z,17.7
2024-04-23T02:29:56.146Z,17.6
2024-04-23T02:39:58.551Z,17.6
2024-04-23T02:50:00.975Z,17.7
2024-04-23T03:00:03.035Z,17.6
2024-04-23T03:10:04.993Z,17.6
2024-04-23T03:20:07.121Z,17.5
2024-04-23T03:30:08.831Z,17.5
2024-04-23T03:50:13.391Z,17.5
2024-04-23T04:00:15.972Z,17.4
2024-04-23T04:10:17.726Z,17.4
2024-04-23T04:30:21.520Z,17.3
2024-04-23T04:40:23.935Z,17.4
2024-04-23T04:50:25.852Z,17.4
2024-04-23T05:00:27.864Z,17.4
2024-04-23T05:10:30.458Z,17.4
2024-04-23T05:20:32.811Z,17.6
2024-04-23T05:30:34.957Z,17.7
2024-04-23T05:40:37.037Z,17.7
2024-04-23T05:50:39.272Z,17.9
2024-04-23T06:00:41.857Z,17.9
2024-04-23T06:10:44.082Z,18
2024-04-23T06:20:45.784Z,18.3
2024-04-23T06:30:47.749Z,18.8
2024-04-23T06:40:54.998Z,19.5
2024-04-23T06:50:51.730Z,20.1
2024-04-23T07:00:53.581Z,20.8
2024-04-23T07:10:55.815Z,21.4
2024-04-23T07:20:57.806Z,21.9
2024-04-23T07:30:59.613Z,22.5
2024-04-23T07:41:02.332Z,23.1
2024-04-23T07:51:03.978Z,23.7
2024-04-23T08:01:06.108Z,24.2
2024-04-23T08:11:08.046Z,24.7
2024-04-23T08:21:09.664Z,25.2
2024-04-23T08:31:12.091Z,25.7
2024-04-23T08:41:14.705Z,26.3
2024-04-23T08:51:16.978Z,26.8
2024-04-23T09:01:18.712Z,27.3
2024-04-23T09:11:20.502Z,25.8
2024-04-23T09:31:25.001Z,28.7
2024-04-23T09:41:27.087Z,29.1
2024-04-23T09:51:28.879Z,29.3
2024-04-23T10:01:31.406Z,25.6
2024-04-23T10:21:34.882Z,24.3
2024-04-23T10:41:39.039Z,23.8
2024-04-23T11:21:55.261Z,23
2024-04-23T11:31:57.743Z,22.9
2024-04-23T11:42:00.018Z,22.9
2024-04-23T11:52:02.472Z,22.7
2024-04-23T12:02:04.775Z,22.4
2024-04-23T12:22:09.546Z,22.3
2024-04-23T12:32:12.004Z,22.5
2024-04-23T12:42:14.180Z,22.6
2024-04-23T12:52:16.518Z,22.7
2024-04-23T13:02:18.362Z,22.8
2024-04-23T13:12:20.172Z,22.8
2024-04-23T13:32:24.785Z,22.7
2024-04-23T13:42:27.045Z,22.7
2024-04-23T13:52:29.519Z,22.5
2024-04-23T14:02:31.623Z,22.5
2024-04-23T14:12:33.460Z,22.5
2024-04-23T14:22:35.194Z,22.4
2024-04-23T14:32:37.801Z,22.3
2024-04-23T14:42:39.450Z,22.1
2024-04-23T14:52:41.690Z,22.1
2024-04-23T15:12:46.174Z,22
2024-04-23T15:22:48.174Z,22
2024-04-23T15:32:52.994Z,21.9
2024-04-23T15:42:53.013Z,21.9
2024-04-23T15:52:54.755Z,21.8
2024-04-23T16:02:56.909Z,21.8
2024-04-23T16:12:58.682Z,21.7
2024-04-23T16:23:00.898Z,21.6
2024-04-23T16:33:03.408Z,21.6
2024-04-23T16:43:05.327Z,21.5
2024-04-23T16:53:07.784Z,21.5
2024-04-23T17:03:09.683Z,21.4
2024-04-23T17:13:11.931Z,21.4
2024-04-23T17:23:14.173Z,21.3
2024-04-23T17:33:16.382Z,21.2
2024-04-23T17:43:18.298Z,21.2
2024-04-23T17:53:20.428Z,21.1
2024-04-23T18:03:22.047Z,21
2024-04-23T18:13:24.240Z,21
2024-04-23T18:23:29.304Z,20.9
2024-04-23T18:33:29.352Z,20.9
2024-04-23T18:43:31.358Z,20.8
2024-04-23T18:53:33.455Z,20.8
2024-04-23T19:03:36.128Z,20.7
2024-04-23T19:13:38.755Z,20.7
2024-04-23T19:23:40.982Z,20.7
2024-04-23T19:33:43.578Z,20.6
2024-04-23T19:43:50.850Z,20.6
2024-04-23T19:53:48.305Z,20.6
2024-04-23T20:03:50.750Z,20.6
2024-04-23T20:13:52.612Z,20.5
2024-04-23T20:23:54.332Z,20.5
2024-04-23T20:33:56.094Z,20.5
2024-04-23T20:53:59.701Z,20.4
2024-04-23T21:04:02.283Z,20.4
2024-04-23T21:14:04.718Z,20.3
2024-04-23T21:24:07.029Z,20.3
2024-04-23T21:34:09.580Z,20.3
2024-04-23T21:44:11.665Z,20.3
2024-04-23T21:54:14.240Z,20.2
2024-04-23T22:04:16.168Z,20.2
2024-04-23T22:14:18.894Z,20.2
2024-04-23T22:24:20.516Z,20.2
2024-04-23T22:34:22.967Z,20.1
2024-04-23T23:44:39.070Z,19.7
2024-04-23T23:54:41.560Z,19.7
